Aérodrome :
LOGIN :

S'inscrire | Disclaimer

   EN    FR    IT 

 










Légende :    VFR   VFR Marginal   IFR   IFR Intensif   IFR Très Intensif
Visi : 
Plafond : 
>= 8 km
>= 3000ft
5 à 8 km
1000 à 3000 ft
1500m à 5 km
500 à 1000 ft
800 à 1500m
200 à 500 ft
< 800m
< 200 ft
Symboles :   Orages  Brouillard  Fortes neiges  Fortes précipitations  Vent > 20 kt
SIGMETs :   Divers  Orages  Givrage  Turbulence  Onde Orograph.  Cendres Volcan.






- Altitude de l'aérodrome : 80 ft
- Code IATA : LPL


EGGP - Liverpool John Lennon

DERNIER METAR :
  • 141720Z 07007KT 9999 7000SE -RA FEW021 12/11 Q1004

METARs EXPIRÉS :
  • 141650Z 09009KT 9999 FEW021 12/11 Q1004
  • 141620Z 10010KT 9999 FEW033 12/11 Q1004
  • 141550Z 11007KT 9999 FEW033 13/11 Q1005
  • 141520Z 11008KT 9999 FEW019 13/12 Q1005
  • 141450Z 12007KT 9999 SCT017 13/12 Q1005

TAF TAF EGGP
Valide du 14 à 18h jusqu'au 15 à 18h UTC


141701Z 1418/1518 07008KT 9999 SCT025
TEMPO 1418/1502 8000 RA BKN014
PROB30
TEMPO 1502/1510 8000 BKN014
TEMPO 1510/1513 6000 BKN010
PROB30
TEMPO 1513/1518 8000 -SHRA
ATIS : +44 151 907 2000 (option 5 or ext 5150)
Météo : +44 871 750 5150



MET'MAP, la Météo Aéronautique d'un coup d'oeil ! - Copyright ORBIFLY Décembre 2007 - Disclaimer

ORBIFLY MET'MAP TEAM :

Programmation & Développement : Alexandra Zaïnal
Conception & Développement : Baudouin d'Aumeries
Co-Programmation & Développement : Marc-Olivier Méhu
Soutien technique & logistique : Manuel Goepfert

Contact : metmap@orbifly.com




SOURCES & CREDITS :

   NOAA